createdAt,value
2018-04-02T00:00:17.097Z,83.01
2018-04-02T00:01:17.083Z,83.47
2018-04-02T00:02:17.083Z,83.19
2018-04-02T00:03:17.060Z,83.05
2018-04-02T00:04:17.064Z,83.26
2018-04-02T00:05:17.068Z,83.14
2018-04-02T00:06:17.100Z,83.02
2018-04-02T00:07:17.118Z,83.56
2018-04-02T00:08:17.064Z,83.7
2018-04-02T00:09:17.056Z,83.54
2018-04-02T00:10:17.072Z,83.52
2018-04-02T00:11:17.059Z,83.18
2018-04-02T00:12:17.154Z,82.95
2018-04-02T00:13:17.056Z,83.2
2018-04-02T00:14:17.092Z,83.41
2018-04-02T00:15:17.070Z,83.07
2018-04-02T00:16:17.057Z,83.2
2018-04-02T00:17:17.093Z,83.28
2018-04-02T00:18:17.057Z,83.55
2018-04-02T00:19:17.062Z,83.14
2018-04-02T00:20:17.179Z,83.47
2018-04-02T00:21:17.102Z,83.56
2018-04-02T00:22:17.078Z,83.68
2018-04-02T00:23:17.078Z,83.5
2018-04-02T00:24:17.071Z,83.79
2018-04-02T00:25:17.079Z,83.62
2018-04-02T00:26:17.077Z,83.74
2018-04-02T00:27:17.068Z,84.1
2018-04-02T00:28:17.093Z,83.49
2018-04-02T00:29:17.065Z,83.63
2018-04-02T00:30:17.097Z,84.14
2018-04-02T00:31:17.079Z,83.34
2018-04-02T00:32:17.076Z,84.12
2018-04-02T00:33:17.085Z,84.2
2018-04-02T00:34:17.069Z,83.85
2018-04-02T00:35:17.097Z,83.27
2018-04-02T00:36:17.073Z,83.62
2018-04-02T00:37:17.090Z,83.28
2018-04-02T00:38:17.082Z,82.96
2018-04-02T00:39:17.073Z,83.71
2018-04-02T00:40:17.076Z,83.48
2018-04-02T00:41:17.086Z,83.39
2018-04-02T00:42:17.120Z,83.23
2018-04-02T00:43:17.084Z,83.74
2018-04-02T00:44:17.076Z,83.45
2018-04-02T00:45:17.082Z,83.68
2018-04-02T00:46:17.081Z,83.88
2018-04-02T00:47:17.088Z,83.29
2018-04-02T00:48:17.097Z,82.87
2018-04-02T00:49:17.086Z,83.05
2018-04-02T00:50:17.078Z,82.77
2018-04-02T00:51:17.180Z,83.18
2018-04-02T00:52:17.079Z,83.21
2018-04-02T00:53:17.110Z,82.97
2018-04-02T00:54:17.074Z,82.87
2018-04-02T00:55:17.076Z,83.09
2018-04-02T00:56:17.082Z,83.03
2018-04-02T00:57:17.087Z,83.08
2018-04-02T00:58:17.094Z,83.03
2018-04-02T00:59:17.100Z,83
2018-04-02T01:00:17.078Z,83.28
2018-04-02T01:01:17.084Z,83.11
2018-04-02T01:02:17.081Z,83.4
2018-04-02T01:03:17.105Z,83.41
2018-04-02T01:04:17.081Z,83.38
2018-04-02T01:05:17.265Z,82.89
2018-04-02T01:06:17.098Z,82.72
2018-04-02T01:07:17.081Z,82.8
2018-04-02T01:08:17.092Z,82.63
2018-04-02T01:09:17.098Z,82.49
2018-04-02T01:10:17.081Z,82.49
2018-04-02T01:11:17.084Z,82.57
2018-04-02T01:12:17.138Z,82.65
2018-04-02T01:13:17.300Z,82.38
2018-04-02T01:14:17.080Z,82.18
2018-04-02T01:15:17.082Z,82.53
2018-04-02T01:16:17.097Z,82.49
2018-04-02T01:17:17.083Z,82.73
2018-04-02T01:18:17.129Z,82.8
2018-04-02T01:19:17.103Z,82.72
2018-04-02T01:20:17.119Z,82.28
2018-04-02T01:21:17.123Z,82.07
2018-04-02T01:22:17.189Z,81.94
2018-04-02T01:23:17.112Z,81.99
2018-04-02T01:24:17.102Z,82.22
2018-04-02T01:25:17.089Z,82
2018-04-02T01:26:17.085Z,81.83
2018-04-02T01:27:17.086Z,82.08
2018-04-02T01:28:17.096Z,81.73
2018-04-02T01:29:17.088Z,82.44
2018-04-02T01:30:17.139Z,81.92
2018-04-02T01:31:17.097Z,81.89
2018-04-02T01:32:17.094Z,82.34
2018-04-02T01:33:17.084Z,81.94
2018-04-02T01:34:17.124Z,81.75
2018-04-02T01:35:17.086Z,82.23
2018-04-02T01:36:17.087Z,82.34
2018-04-02T01:37:17.109Z,82.05
2018-04-02T01:38:17.106Z,82.32
2018-04-02T01:39:17.107Z,82.08
2018-04-02T01:40:17.102Z,81.88
2018-04-02T01:41:17.101Z,82.2
2018-04-02T01:42:17.107Z,82.13
2018-04-02T01:43:17.100Z,82.53
2018-04-02T01:44:17.117Z,82.3
2018-04-02T01:45:17.106Z,82.15
2018-04-02T01:46:17.104Z,81.81
2018-04-02T01:47:17.100Z,81.72
2018-04-02T01:48:17.103Z,81.8
2018-04-02T01:49:17.103Z,82.18
2018-04-02T01:50:17.091Z,82.44
2018-04-02T01:51:17.096Z,82.37
2018-04-02T01:52:17.097Z,82.11
2018-04-02T01:53:17.182Z,82.58
2018-04-02T01:54:17.104Z,82.68
2018-04-02T01:55:17.109Z,82.35
2018-04-02T01:56:17.091Z,82.03
2018-04-02T01:57:17.099Z,82.58
2018-04-02T01:58:17.117Z,82.3
2018-04-02T01:59:17.109Z,82.37
2018-04-02T02:00:17.118Z,82.17
2018-04-02T02:01:17.107Z,82.35
2018-04-02T02:02:17.120Z,82.15
2018-04-02T02:03:17.119Z,82.66
2018-04-02T02:04:17.110Z,83.13
2018-04-02T02:05:17.102Z,82.83
2018-04-02T02:06:17.090Z,82.72
2018-04-02T02:07:17.109Z,83.11
2018-04-02T02:08:17.163Z,82.99
2018-04-02T02:09:17.103Z,83.15
2018-04-02T02:10:17.100Z,82.77
2018-04-02T02:11:17.115Z,82.9
2018-04-02T02:12:17.111Z,82.76
2018-04-02T02:13:17.105Z,82.88
2018-04-02T02:14:17.103Z,82.3
2018-04-02T02:15:17.136Z,82.24
2018-04-02T02:16:17.117Z,82.14
2018-04-02T02:17:17.110Z,82.55
2018-04-02T02:18:17.121Z,82.23
2018-04-02T02:19:17.137Z,82.04
2018-04-02T02:20:17.101Z,82.63
2018-04-02T02:21:17.355Z,82.68
2018-04-02T02:22:17.127Z,82.38
2018-04-02T02:23:17.111Z,82.61
2018-04-02T02:24:17.172Z,82.72
2018-04-02T02:25:17.103Z,82.4
2018-04-02T02:26:17.141Z,82.6
2018-04-02T02:27:17.113Z,82.95
2018-04-02T02:28:17.111Z,83.07
2018-04-02T02:29:17.140Z,82.68
2018-04-02T02:30:17.815Z,83.02
2018-04-02T02:31:17.199Z,82.97
2018-04-02T02:32:17.133Z,82.86
2018-04-02T02:33:17.157Z,82.8
2018-04-02T02:34:17.127Z,82.88
2018-04-02T02:35:17.125Z,82.48
2018-04-02T02:36:17.125Z,82.82
2018-04-02T02:37:17.116Z,82.87
2018-04-02T02:38:17.115Z,82.43
2018-04-02T02:39:17.131Z,82.65
2018-04-02T02:40:17.127Z,82.63
2018-04-02T02:41:17.140Z,82.79
2018-04-02T02:42:17.124Z,82.39
2018-04-02T02:43:17.162Z,82.85
2018-04-02T02:44:17.122Z,82.76
2018-04-02T02:45:17.139Z,82.81
2018-04-02T02:46:17.215Z,82.65
2018-04-02T02:47:17.129Z,82.49
2018-04-02T02:48:17.133Z,82.45
2018-04-02T02:49:17.140Z,82.8
2018-04-02T02:50:17.166Z,82.53
2018-04-02T02:51:17.114Z,82.38
2018-04-02T02:52:17.118Z,82.66
2018-04-02T02:53:17.123Z,82.28
2018-04-02T02:54:17.149Z,82.19
2018-04-02T02:55:17.217Z,82.15
2018-04-02T02:56:17.204Z,82.01
2018-04-02T02:57:17.128Z,82.51
2018-04-02T02:58:17.121Z,82.1
2018-04-02T02:59:17.127Z,82.4
2018-04-02T03:00:17.132Z,82.21
2018-04-02T03:01:17.154Z,82.47
2018-04-02T03:02:17.144Z,82.26
2018-04-02T03:03:17.128Z,81.98
2018-04-02T03:04:17.166Z,82.28
2018-04-02T03:05:17.144Z,82.36
2018-04-02T03:06:17.139Z,81.88
2018-04-02T03:07:17.152Z,81.76
2018-04-02T03:08:17.114Z,81.69
2018-04-02T03:09:17.133Z,81.96
2018-04-02T03:10:17.120Z,82.29
2018-04-02T03:11:17.186Z,82.31
2018-04-02T03:12:17.151Z,82.24
2018-04-02T03:13:17.123Z,82.33
2018-04-02T03:14:17.193Z,82.12
2018-04-02T03:15:17.145Z,82.04
2018-04-02T03:16:17.125Z,82.17
2018-04-02T03:17:17.121Z,81.84
2018-04-02T03:18:17.131Z,81.74
2018-04-02T03:19:17.127Z,81.66
2018-04-02T03:20:17.122Z,81.79
2018-04-02T03:21:17.158Z,82.05
2018-04-02T03:22:17.129Z,82.08
2018-04-02T03:23:17.143Z,81.78
2018-04-02T03:24:17.231Z,82.03
2018-04-02T03:25:17.120Z,82.03
2018-04-02T03:26:17.193Z,81.7
2018-04-02T03:27:17.147Z,81.63
2018-04-02T03:28:17.132Z,82.22
2018-04-02T03:29:17.136Z,81.89
2018-04-02T03:30:17.142Z,81.91
2018-04-02T03:31:17.149Z,82.01
2018-04-02T03:32:17.123Z,81.77
2018-04-02T03:33:17.148Z,81.87
2018-04-02T03:34:17.136Z,81.92
2018-04-02T03:35:17.149Z,81.72
2018-04-02T03:36:17.146Z,81.97
2018-04-02T03:37:17.137Z,81.82
2018-04-02T03:38:17.135Z,81.75
2018-04-02T03:39:17.129Z,81.72
2018-04-02T03:40:17.134Z,81.81
2018-04-02T03:41:17.132Z,81.97
2018-04-02T03:42:17.158Z,82.02
2018-04-02T03:43:17.143Z,82.11
2018-04-02T03:44:17.133Z,82.07
2018-04-02T03:45:17.130Z,82.2
2018-04-02T03:46:17.142Z,82.21
2018-04-02T03:47:17.143Z,82.23
2018-04-02T03:48:17.133Z,82.36
2018-04-02T03:49:17.156Z,82.24
2018-04-02T03:50:17.141Z,82.28
2018-04-02T03:51:17.136Z,82.09
2018-04-02T03:52:17.129Z,82.45
2018-04-02T03:53:17.151Z,82.23
2018-04-02T03:54:17.131Z,82.25
2018-04-02T03:55:17.127Z,82.13
2018-04-02T03:56:17.139Z,82.2
2018-04-02T03:57:17.226Z,82.16
2018-04-02T03:58:17.149Z,82.12
2018-04-02T03:59:17.152Z,82.05
2018-04-02T04:00:17.146Z,81.88
2018-04-02T04:01:17.142Z,81.82
2018-04-02T04:02:17.149Z,81.9
2018-04-02T04:03:17.165Z,82.15
2018-04-02T04:04:17.161Z,82.07
2018-04-02T04:05:17.146Z,82.12
2018-04-02T04:06:17.147Z,82.01
2018-04-02T04:07:17.164Z,81.85
2018-04-02T04:08:17.142Z,82.07
2018-04-02T04:09:17.137Z,82.21
2018-04-02T04:10:17.163Z,82.09
2018-04-02T04:11:17.142Z,81.94
2018-04-02T04:12:17.502Z,81.8
2018-04-02T04:13:17.158Z,81.87
2018-04-02T04:14:17.151Z,81.83
2018-04-02T04:15:17.139Z,81.77
2018-04-02T04:16:17.150Z,81.76
2018-04-02T04:17:17.181Z,81.66
2018-04-02T04:18:17.158Z,81.66
2018-04-02T04:19:17.158Z,81.68
2018-04-02T04:20:17.142Z,81.75
2018-04-02T04:21:17.138Z,81.92
2018-04-02T04:22:17.137Z,82
2018-04-02T04:23:17.162Z,82.04
2018-04-02T04:24:17.187Z,81.73
2018-04-02T04:25:17.136Z,81.78
2018-04-02T04:26:17.143Z,81.76
2018-04-02T04:27:17.174Z,81.81
2018-04-02T04:28:17.300Z,81.74
2018-04-02T04:29:17.151Z,81.78
2018-04-02T04:30:17.142Z,81.55
2018-04-02T04:31:17.141Z,81.63
2018-04-02T04:32:17.149Z,81.71
2018-04-02T04:33:17.151Z,82.13
2018-04-02T04:34:17.157Z,82.23
2018-04-02T04:35:17.219Z,82.16
2018-04-02T04:36:17.177Z,81.95
2018-04-02T04:37:17.144Z,81.86
2018-04-02T04:38:17.163Z,81.62
2018-04-02T04:39:17.177Z,81.5
2018-04-02T04:40:17.337Z,81.69
2018-04-02T04:41:17.161Z,81.74
2018-04-02T04:42:17.143Z,81.85
2018-04-02T04:43:17.141Z,81.66
2018-04-02T04:44:17.520Z,81.65
2018-04-02T04:45:17.147Z,81.72
2018-04-02T04:46:17.149Z,81.79
2018-04-02T04:47:17.152Z,81.52
2018-04-02T04:48:17.150Z,81.9
2018-04-02T04:49:17.236Z,82.06
2018-04-02T04:50:17.148Z,82.05
2018-04-02T04:51:17.147Z,81.66
2018-04-02T04:52:17.161Z,82.22
2018-04-02T04:53:17.172Z,82.26
2018-04-02T04:54:17.160Z,82.29
2018-04-02T04:55:17.489Z,82.1
2018-04-02T04:56:17.145Z,81.9
2018-04-02T04:57:17.151Z,82.63
2018-04-02T04:58:17.166Z,82.77
2018-04-02T04:59:17.235Z,83.09
2018-04-02T05:00:17.172Z,83.03
2018-04-02T05:01:17.152Z,82.81
2018-04-02T05:02:17.163Z,82.87
2018-04-02T05:03:17.157Z,82.87
2018-04-02T05:04:17.178Z,83.08
2018-04-02T05:05:17.173Z,82.85
2018-04-02T05:06:17.155Z,83.09
2018-04-02T05:07:17.152Z,82.89
2018-04-02T05:08:17.161Z,82.88
2018-04-02T05:09:17.238Z,82.39
2018-04-02T05:10:17.184Z,82.24
2018-04-02T05:11:17.164Z,82.34
2018-04-02T05:12:17.203Z,82.69
2018-04-02T05:13:17.162Z,82.53
2018-04-02T05:14:17.144Z,82.61
2018-04-02T05:15:17.187Z,82.74
2018-04-02T05:16:17.175Z,82.38
2018-04-02T05:17:17.158Z,82.05
2018-04-02T05:18:17.172Z,82.55
2018-04-02T05:19:17.159Z,82.69
2018-04-02T05:20:17.189Z,82.97
2018-04-02T05:21:17.160Z,82.7
2018-04-02T05:22:17.164Z,82.61
2018-04-02T05:23:17.172Z,82.91
2018-04-02T05:24:17.157Z,82.87
2018-04-02T05:25:17.194Z,82.89
2018-04-02T05:26:17.162Z,82.82
2018-04-02T05:27:17.161Z,82.72
2018-04-02T05:28:17.150Z,82.58
2018-04-02T05:29:17.157Z,82.01
2018-04-02T05:30:17.330Z,82.29
2018-04-02T05:31:17.166Z,82.5
2018-04-02T05:32:17.176Z,82.64
2018-04-02T05:33:17.179Z,82.67
2018-04-02T05:34:17.165Z,82.94
2018-04-02T05:35:17.180Z,83.32
2018-04-02T05:36:17.164Z,83.23
2018-04-02T05:37:17.168Z,83.02
2018-04-02T05:38:17.173Z,83.33
2018-04-02T05:39:17.172Z,83.27
2018-04-02T05:40:17.192Z,83.5
2018-04-02T05:41:17.420Z,83.47
2018-04-02T05:42:17.164Z,83.68
2018-04-02T05:43:17.171Z,83.52
2018-04-02T05:44:17.175Z,83.65
2018-04-02T05:45:17.367Z,83.78
2018-04-02T05:46:17.186Z,83.31
2018-04-02T05:47:17.177Z,83.32
2018-04-02T05:48:17.171Z,83.65
2018-04-02T05:49:17.173Z,83.82
2018-04-02T05:50:17.225Z,83.58
2018-04-02T05:51:17.195Z,83.36
2018-04-02T05:52:17.174Z,83.85
2018-04-02T05:53:17.198Z,83.79
2018-04-02T05:54:17.194Z,83.33
2018-04-02T05:55:17.180Z,83.48
2018-04-02T05:56:17.226Z,83.66
2018-04-02T05:57:17.192Z,83.54
2018-04-02T05:58:17.291Z,83.92
2018-04-02T05:59:17.207Z,83.96
2018-04-02T06:00:17.250Z,84.09
2018-04-02T06:01:17.626Z,83.83
2018-04-02T06:02:17.975Z,83.99
2018-04-02T06:03:17.325Z,83.91
2018-04-02T06:04:17.310Z,83.79
2018-04-02T06:05:17.186Z,83.89
2018-04-02T06:06:17.314Z,84.28
2018-04-02T06:07:17.224Z,84.17
2018-04-02T06:08:17.219Z,83.99
2018-04-02T06:09:17.180Z,84.23
2018-04-02T06:10:17.204Z,84.07
2018-04-02T06:11:17.215Z,84.24
2018-04-02T06:12:17.201Z,83.81
2018-04-02T06:13:17.175Z,83.85
2018-04-02T06:14:17.184Z,83.96
2018-04-02T06:15:24.297Z,83.95
2018-04-02T06:16:17.211Z,84
2018-04-02T06:17:17.203Z,84.09
2018-04-02T06:18:17.245Z,83.9
2018-04-02T06:19:17.251Z,84.1
2018-04-02T06:20:17.192Z,83.82
2018-04-02T06:21:17.193Z,83.76
2018-04-02T06:22:17.203Z,83.67
2018-04-02T06:23:17.210Z,83.75
2018-04-02T06:24:17.245Z,84.09
2018-04-02T06:25:17.220Z,83.51
2018-04-02T06:26:17.227Z,83.67
2018-04-02T06:27:17.209Z,83.93
2018-04-02T06:28:17.214Z,83.79
2018-04-02T06:29:17.221Z,83.76
2018-04-02T06:30:17.228Z,83.82
2018-04-02T06:31:17.208Z,83.71
2018-04-02T06:32:17.271Z,83.67
2018-04-02T06:33:17.175Z,83.8
2018-04-02T06:34:17.184Z,83.59
2018-04-02T06:35:17.190Z,83.68
2018-04-02T06:36:17.174Z,83.54
2018-04-02T06:37:17.191Z,83.43
2018-04-02T06:38:17.182Z,83.26
2018-04-02T06:39:17.192Z,83.24
2018-04-02T06:40:17.228Z,83.07
2018-04-02T06:41:17.184Z,82.32
2018-04-02T06:42:17.200Z,82.45
2018-04-02T06:43:17.184Z,82.68
2018-04-02T06:44:17.197Z,82.28
2018-04-02T06:45:17.176Z,82.13
2018-04-02T06:46:17.172Z,82.09
2018-04-02T06:47:17.180Z,82.04
2018-04-02T06:48:17.186Z,82.29
2018-04-02T06:49:17.214Z,81.81
2018-04-02T06:50:17.200Z,81.77
2018-04-02T06:51:17.189Z,81.88
2018-04-02T06:52:17.189Z,81.84
2018-04-02T06:53:17.178Z,81.42
2018-04-02T06:54:17.206Z,81.41
2018-04-02T06:55:17.225Z,81.57
2018-04-02T06:56:17.188Z,81.38
2018-04-02T06:57:17.192Z,80.89
2018-04-02T06:58:17.190Z,80.7
2018-04-02T06:59:17.215Z,80.77
2018-04-02T07:00:17.181Z,80.48
2018-04-02T07:01:17.187Z,80.87
2018-04-02T07:02:17.196Z,80.75
2018-04-02T07:03:17.289Z,80.81
2018-04-02T07:04:17.203Z,80.22
2018-04-02T07:05:17.187Z,80.3
2018-04-02T07:06:17.188Z,80.51
2018-04-02T07:07:17.184Z,80.5
2018-04-02T07:08:17.196Z,80.41
2018-04-02T07:09:17.187Z,80.2
2018-04-02T07:10:17.188Z,80.12
2018-04-02T07:11:17.206Z,80.12
2018-04-02T07:12:17.191Z,79.25
2018-04-02T07:13:17.196Z,79.66
2018-04-02T07:14:17.184Z,79.11
2018-04-02T07:15:17.192Z,79.26
2018-04-02T07:16:17.541Z,79.57
2018-04-02T07:17:17.208Z,79.73
2018-04-02T07:18:17.202Z,79.45
2018-04-02T07:19:17.192Z,79.54
2018-04-02T07:20:17.196Z,79.5
2018-04-02T07:21:17.223Z,79.01
2018-04-02T07:22:17.200Z,78.58
2018-04-02T07:23:17.223Z,78.33
2018-04-02T07:24:17.260Z,78.26
2018-04-02T07:25:17.194Z,78.68
2018-04-02T07:26:17.214Z,78.52
2018-04-02T07:27:17.196Z,78.66
2018-04-02T07:28:17.214Z,78.67
2018-04-02T07:29:17.190Z,78.38
2018-04-02T07:30:17.198Z,78.24
2018-04-02T07:31:17.274Z,78.43
2018-04-02T07:32:17.185Z,78.12
2018-04-02T07:33:17.220Z,78.07
2018-04-02T07:34:17.410Z,77.72
2018-04-02T07:35:17.189Z,77.87
2018-04-02T07:36:17.236Z,78.01
2018-04-02T07:37:17.252Z,78.29
2018-04-02T07:38:17.222Z,78.56
2018-04-02T07:39:17.207Z,78.3
2018-04-02T07:40:17.184Z,77.92
2018-04-02T07:41:17.211Z,78.01
2018-04-02T07:42:17.190Z,78.18
2018-04-02T07:43:17.196Z,78.15
2018-04-02T07:44:17.420Z,77.86
2018-04-02T07:45:17.200Z,77.73
2018-04-02T07:46:17.204Z,78.09
2018-04-02T07:47:17.204Z,77.51
2018-04-02T07:48:17.208Z,77.81
2018-04-02T07:49:17.207Z,78.06
2018-04-02T07:50:17.235Z,77.72
2018-04-02T07:51:17.211Z,77.58
2018-04-02T07:52:17.192Z,77.55
2018-04-02T07:53:17.200Z,77.73
2018-04-02T07:54:17.209Z,77.77
2018-04-02T07:55:17.225Z,77.65
2018-04-02T07:56:17.214Z,77.87
2018-04-02T07:57:17.207Z,77.85
2018-04-02T07:58:17.196Z,77.76
2018-04-02T07:59:17.190Z,77.42
2018-04-02T08:00:17.206Z,77.09
2018-04-02T08:01:17.197Z,77.1
2018-04-02T08:02:17.219Z,77.22
2018-04-02T08:03:17.196Z,77.51
2018-04-02T08:04:17.428Z,77.29
2018-04-02T08:05:17.291Z,76.89
2018-04-02T08:06:17.217Z,76.92
2018-04-02T08:07:17.204Z,76.69
2018-04-02T08:08:17.211Z,76.64
2018-04-02T08:09:17.226Z,76.28
2018-04-02T08:10:17.203Z,76.23
2018-04-02T08:11:17.204Z,76.36
2018-04-02T08:12:17.216Z,76.4
2018-04-02T08:13:17.208Z,76.63
2018-04-02T08:14:17.210Z,76.26
2018-04-02T08:15:17.210Z,75.67
2018-04-02T08:16:17.217Z,75.93
2018-04-02T08:17:17.241Z,75.79
2018-04-02T08:18:17.209Z,75.86
2018-04-02T08:19:17.207Z,75.86
2018-04-02T08:20:17.206Z,76.1
2018-04-02T08:21:17.458Z,75.99
2018-04-02T08:22:17.229Z,75.95
2018-04-02T08:23:17.226Z,75.85
2018-04-02T08:24:17.206Z,75.55
2018-04-02T08:25:17.357Z,76.25
2018-04-02T08:26:17.257Z,75.59
2018-04-02T08:27:17.250Z,75.53
2018-04-02T08:28:17.373Z,75.53
2018-04-02T08:29:17.230Z,75.37
2018-04-02T08:30:17.239Z,75.14
2018-04-02T08:31:17.208Z,74.99
2018-04-02T08:32:17.211Z,74.74
2018-04-02T08:33:17.216Z,74.27
2018-04-02T08:34:17.207Z,74.23
2018-04-02T08:35:17.213Z,74.27
2018-04-02T08:36:17.290Z,74.26
2018-04-02T08:37:17.270Z,74.4
2018-04-02T08:38:17.202Z,74.97
2018-04-02T08:39:17.587Z,75.16
2018-04-02T08:40:17.229Z,75.04
2018-04-02T08:41:17.221Z,75.05
2018-04-02T08:42:17.229Z,75.08
2018-04-02T08:43:17.201Z,74.65
2018-04-02T08:44:17.466Z,74.46
2018-04-02T08:45:17.206Z,74.2
2018-04-02T08:46:17.253Z,73.82
2018-04-02T08:47:17.230Z,73.95
2018-04-02T08:48:17.217Z,73.91
2018-04-02T08:49:17.254Z,73.52
2018-04-02T08:50:17.212Z,73.1
2018-04-02T08:51:17.255Z,73.08
2018-04-02T08:52:17.205Z,72.63
2018-04-02T08:53:17.210Z,72.13
2018-04-02T08:54:17.256Z,72.34
2018-04-02T08:55:17.235Z,72.61
2018-04-02T08:56:17.239Z,72.41
2018-04-02T08:57:17.451Z,72.92
2018-04-02T08:58:17.242Z,73.1
2018-04-02T08:59:17.252Z,72.48
2018-04-02T09:00:17.330Z,72.23
2018-04-02T09:01:17.252Z,72.42
2018-04-02T09:02:17.240Z,73.22
2018-04-02T09:03:17.259Z,72.5
2018-04-02T09:04:17.311Z,71.85
2018-04-02T09:05:17.287Z,70.18
2018-04-02T09:06:17.268Z,68.78
2018-04-02T09:07:17.276Z,68.66
2018-04-02T09:08:17.253Z,68.95
2018-04-02T09:09:17.238Z,69.15
2018-04-02T09:10:17.247Z,69.1
2018-04-02T09:11:17.273Z,69.35
2018-04-02T09:12:17.251Z,68.65
2018-04-02T09:13:17.414Z,67.5
2018-04-02T09:14:17.304Z,68.08
2018-04-02T09:15:17.255Z,67.41
2018-04-02T09:16:17.258Z,67.37
2018-04-02T09:17:17.287Z,67.7
2018-04-02T09:18:17.269Z,67.03
2018-04-02T09:19:17.252Z,67.12
2018-04-02T09:20:17.587Z,66.63
2018-04-02T09:21:17.236Z,67.8
2018-04-02T09:22:17.257Z,67.01
2018-04-02T09:23:17.243Z,66
2018-04-02T09:24:17.258Z,65.71
2018-04-02T09:25:17.283Z,66.27
2018-04-02T09:26:18.698Z,65.55
2018-04-02T09:27:17.235Z,64.27
2018-04-02T09:28:17.238Z,65.23
2018-04-02T09:29:17.272Z,64.36
2018-04-02T09:30:17.223Z,64.51
2018-04-02T09:31:17.266Z,63.49
2018-04-02T09:32:17.243Z,63.08
2018-04-02T09:33:17.257Z,63.49
2018-04-02T09:34:17.220Z,63.8
2018-04-02T09:35:17.221Z,64.27
2018-04-02T09:36:17.230Z,64.24
2018-04-02T09:37:17.296Z,61.72
2018-04-02T09:38:17.284Z,62.49
2018-04-02T09:39:17.261Z,62.55
2018-04-02T09:40:17.258Z,63.05
2018-04-02T09:41:17.261Z,61.49
2018-04-02T09:42:17.281Z,61.88
2018-04-02T09:43:17.235Z,61.86
2018-04-02T09:44:17.247Z,60.86
2018-04-02T09:45:17.250Z,60.45
2018-04-02T09:46:17.304Z,59.97
2018-04-02T09:47:17.282Z,60.4
2018-04-02T09:48:17.279Z,60.91
2018-04-02T09:49:17.292Z,59.91
2018-04-02T09:50:17.224Z,61.04
2018-04-02T09:51:17.258Z,59.44
2018-04-02T09:52:17.246Z,58.92
2018-04-02T09:53:17.313Z,59.3
2018-04-02T09:54:17.504Z,57.49
2018-04-02T09:55:17.272Z,57.03
2018-04-02T09:56:17.289Z,57.65
2018-04-02T09:57:17.294Z,58.18
2018-04-02T09:58:17.264Z,58.04
2018-04-02T09:59:17.639Z,56.76
2018-04-02T10:00:17.298Z,56.87
2018-04-02T10:01:17.260Z,56.92
2018-04-02T10:02:17.277Z,55.75
2018-04-02T10:03:17.296Z,56.77
2018-04-02T10:04:17.251Z,57.77
2018-04-02T10:05:17.355Z,57.62
2018-04-02T10:06:17.318Z,54.54
2018-04-02T10:07:17.308Z,54.67
2018-04-02T10:08:17.292Z,56.02
2018-04-02T10:09:18.311Z,56.29
2018-04-02T10:10:18.697Z,56.57
2018-04-02T10:11:18.630Z,55.04
2018-04-02T10:12:17.392Z,54.54
2018-04-02T10:13:17.257Z,55.35
2018-04-02T10:14:17.272Z,56.57
2018-04-02T10:15:17.258Z,54.63
2018-04-02T10:16:17.247Z,56.38
2018-04-02T10:17:17.266Z,56.67
2018-04-02T10:18:17.242Z,55.81
2018-04-02T10:19:17.251Z,56.03
2018-04-02T10:20:17.267Z,55.16
2018-04-02T10:21:17.263Z,52.84
2018-04-02T10:22:17.234Z,52.19
2018-04-02T10:23:17.249Z,53.53
2018-04-02T10:24:17.282Z,49.75
2018-04-02T10:25:17.238Z,48.5
2018-04-02T10:26:17.479Z,48.54
2018-04-02T10:27:17.239Z,49.6
2018-04-02T10:28:17.253Z,49.08
2018-04-02T10:29:17.439Z,50.13
2018-04-02T10:30:17.257Z,51.43
2018-04-02T10:31:17.288Z,51.21
2018-04-02T10:32:17.278Z,49.66
2018-04-02T10:33:17.254Z,49.45
2018-04-02T10:34:17.241Z,48.91
2018-04-02T10:35:17.264Z,48.8
2018-04-02T10:36:17.289Z,48.08
2018-04-02T10:37:17.432Z,45.09
2018-04-02T10:38:17.306Z,47.49
2018-04-02T10:39:17.260Z,48.07
2018-04-02T10:40:17.258Z,49.07
2018-04-02T10:41:17.259Z,48.2
2018-04-02T10:42:17.248Z,48.53
2018-04-02T10:43:17.565Z,47.79
2018-04-02T10:44:17.286Z,45.55
2018-04-02T10:45:17.284Z,47.71
2018-04-02T10:46:17.269Z,48
2018-04-02T10:47:17.263Z,48.06
2018-04-02T10:48:17.310Z,46.49
2018-04-02T10:49:17.250Z,46.76
2018-04-02T10:50:17.258Z,48.6
2018-04-02T10:51:17.257Z,49.55
2018-04-02T10:52:17.270Z,50.35
2018-04-02T10:53:17.279Z,48.35
2018-04-02T10:54:17.262Z,48.65
2018-04-02T10:55:17.272Z,48.53
2018-04-02T10:56:17.251Z,48.4
2018-04-02T10:57:17.279Z,48.03
2018-04-02T10:58:17.280Z,48.96
2018-04-02T10:59:17.285Z,49.1
2018-04-02T11:00:17.310Z,47.11
2018-04-02T11:01:17.266Z,47.32
2018-04-02T11:02:17.253Z,47.49
2018-04-02T11:03:17.576Z,48.18
2018-04-02T11:04:17.261Z,47.76
2018-04-02T11:05:17.265Z,48.82
2018-04-02T11:06:17.484Z,47.4
2018-04-02T11:07:17.277Z,46.73
2018-04-02T11:08:17.281Z,46.48
2018-04-02T11:09:17.306Z,47.84
2018-04-02T11:10:17.289Z,47.35
2018-04-02T11:11:17.265Z,46.35
2018-04-02T11:12:17.258Z,47.76
2018-04-02T11:13:17.263Z,44.96
2018-04-02T11:14:17.389Z,46.27
2018-04-02T11:15:17.270Z,46.22
2018-04-02T11:16:17.290Z,46.88
2018-04-02T11:17:17.262Z,45.49
2018-04-02T11:18:17.287Z,45.36
2018-04-02T11:19:17.266Z,45.27
2018-04-02T11:20:17.261Z,45.75
2018-04-02T11:21:17.280Z,45.87
2018-04-02T11:22:17.280Z,46.52
2018-04-02T11:23:17.317Z,45.97
2018-04-02T11:24:17.261Z,46.07
2018-04-02T11:25:17.272Z,46.14
2018-04-02T11:26:17.265Z,45.22
2018-04-02T11:27:17.276Z,45.05
2018-04-02T11:28:17.264Z,45.68
2018-04-02T11:29:17.265Z,46.24
2018-04-02T11:30:17.288Z,45.76
2018-04-02T11:31:17.290Z,45.4
2018-04-02T11:32:17.273Z,45.75
2018-04-02T11:33:17.278Z,45.99
2018-04-02T11:34:17.353Z,46.64
2018-04-02T11:35:17.279Z,47.03
2018-04-02T11:36:17.280Z,45.61
2018-04-02T11:37:17.338Z,47.24
2018-04-02T11:38:17.276Z,45.98
2018-04-02T11:39:17.282Z,46.15
2018-04-02T11:40:17.291Z,46.07
2018-04-02T11:41:17.287Z,43.77
2018-04-02T11:42:17.294Z,46.21
2018-04-02T11:43:17.282Z,46.55
2018-04-02T11:44:17.283Z,46.1
2018-04-02T11:45:17.352Z,44.96
2018-04-02T11:46:17.270Z,43.66
2018-04-02T11:47:17.317Z,45.93
2018-04-02T11:48:17.287Z,46.08
2018-04-02T11:49:17.278Z,44.45
2018-04-02T11:50:17.282Z,43.48
2018-04-02T11:51:17.307Z,43.57
2018-04-02T11:52:17.301Z,42.55
2018-04-02T11:53:17.289Z,42.89
2018-04-02T11:54:17.301Z,42.79
2018-04-02T11:55:17.285Z,43.41
2018-04-02T11:56:17.286Z,42.42
2018-04-02T11:57:17.716Z,41.56
2018-04-02T11:58:17.286Z,42.89
2018-04-02T11:59:17.298Z,43.26
2018-04-02T12:00:17.290Z,41.03
2018-04-02T12:01:17.327Z,41.89
2018-04-02T12:02:17.317Z,42.73
2018-04-02T12:03:17.305Z,43.24
2018-04-02T12:04:17.306Z,42.78
2018-04-02T12:05:17.332Z,42.94
2018-04-02T12:06:17.292Z,42.72
2018-04-02T12:07:17.593Z,41.4
2018-04-02T12:08:17.315Z,40.43
2018-04-02T12:09:17.372Z,39.6
2018-04-02T12:10:17.301Z,41.14
2018-04-02T12:11:17.289Z,42.48
2018-04-02T12:12:17.316Z,42.49
2018-04-02T12:13:17.307Z,41.24
2018-04-02T12:14:17.308Z,39.55
2018-04-02T12:15:17.316Z,40.46
2018-04-02T12:16:17.365Z,41.41
2018-04-02T12:17:17.324Z,41.83
2018-04-02T12:18:17.307Z,41.02
2018-04-02T12:19:17.299Z,39.16
2018-04-02T12:20:17.371Z,40.26
2018-04-02T12:21:17.320Z,41.45
2018-04-02T12:22:17.296Z,41.65
2018-04-02T12:23:17.314Z,39.27
2018-04-02T12:24:17.298Z,39.84
2018-04-02T12:25:17.314Z,40.89
2018-04-02T12:26:17.301Z,40.95
2018-04-02T12:27:17.308Z,41.27
2018-04-02T12:28:17.336Z,41.68
2018-04-02T12:29:17.313Z,42.26
2018-04-02T12:30:17.315Z,40.09
2018-04-02T12:31:17.318Z,40.43
2018-04-02T12:32:17.449Z,40.83
2018-04-02T12:33:17.310Z,42.18
2018-04-02T12:34:17.315Z,40.99
2018-04-02T12:35:17.313Z,39.16
2018-04-02T12:36:17.335Z,40.53
2018-04-02T12:37:17.314Z,41.09
2018-04-02T12:38:17.299Z,40.44
2018-04-02T12:39:17.313Z,41.26
2018-04-02T12:40:17.302Z,39.88
2018-04-02T12:41:17.311Z,39.22
2018-04-02T12:42:17.299Z,38.14
2018-04-02T12:43:17.513Z,37.92
2018-04-02T12:44:18.306Z,37.98
2018-04-02T12:45:17.401Z,38.18
2018-04-02T12:46:17.348Z,36.86
2018-04-02T12:47:17.426Z,36.9
2018-04-02T12:48:17.313Z,37.98
2018-04-02T12:49:17.320Z,37.18
2018-04-02T12:50:17.347Z,37.15
2018-04-02T12:51:17.321Z,37.42
2018-04-02T12:52:17.323Z,36.43
2018-04-02T12:53:17.336Z,39.61
2018-04-02T12:54:17.325Z,35.09
2018-04-02T12:55:17.312Z,37.64